^^
Station Historical Data
Daily Summary for September 15, 2021 Units:  English    Metric   Both
Daily Weekly Monthly Yearly
  High: Low: Average:
Temperature: 71.6 °F 62.9 °F 66.8 °F
Dew Point: 61.5 °F 56.2 °F 58.9 °F
Humidity: 86% 62% 76%
Wind Speed: 4mph 0mph 1.9mph
Wind Gust: 7mph - -
Wind- - SW
Pressure: 29.96 in 29.78 in -
Precipitation: 0.00 in    
 
 
Tabular Data for September 15, 2021
Time Temperature Dew Point Pressure Wind Wind Speed Wind Gust Humidity Rainfall Rate (Hourly) solar
00:00 66.6 °F 57.3 °F 29.78 in NW 3 mph 3 mph 72% 0.00 in 0 W/m2
00:05 66.5 °F 57.2 °F 29.78 in NNE 3 mph 3 mph 72% 0.00 in 0 W/m2
00:10 66.4 °F 57.5 °F 29.78 in NNW 3 mph 3 mph 73% 0.00 in 0 W/m2
00:15 66.4 °F 57.5 °F 29.79 in NNW 3 mph 4 mph 73% 0.00 in 0 W/m2
00:20 66.3 °F 57.4 °F 29.79 in NW 3 mph 3 mph 73% 0.00 in 0 W/m2
00:25 66.1 °F 57.2 °F 29.79 in NW 2 mph 3 mph 73% 0.00 in 0 W/m2
00:30 66.1 °F 57.6 °F 29.79 in NW 2 mph 2 mph 74% 0.00 in 0 W/m2
00:35 66 °F 57.5 °F 29.80 in WNW 3 mph 3 mph 74% 0.00 in 0 W/m2
00:40 65.9 °F 57.4 °F 29.80 in NNW 3 mph 5 mph 74% 0.00 in 0 W/m2
00:45 65.8 °F 57.3 °F 29.80 in WNW 3 mph 5 mph 74% 0.00 in 0 W/m2
00:50 65.7 °F 57.2 °F 29.80 in NW 3 mph 5 mph 74% 0.00 in 0 W/m2
00:55 65.6 °F 57.5 °F 29.80 in NNW 3 mph 5 mph 75% 0.00 in 0 W/m2
01:00 65.5 °F 57 °F 29.81 in WNW 3 mph 3 mph 74% 0.00 in 0 W/m2
01:05 65.4 °F 56.9 °F 29.80 in WSW 3 mph 3 mph 74% 0.00 in 0 W/m2
01:10 65.3 °F 56.8 °F 29.80 in NW 3 mph 4 mph 74% 0.00 in 0 W/m2
01:15 65.2 °F 56.7 °F 29.80 in WNW 3 mph 4 mph 74% 0.00 in 0 W/m2
01:20 65.2 °F 57.1 °F 29.80 in NNW 3 mph 3 mph 75% 0.00 in 0 W/m2
01:25 65.1 °F 57 °F 29.80 in North 3 mph 5 mph 75% 0.00 in 0 W/m2
01:30 65.1 °F 56.6 °F 29.80 in NW 3 mph 7 mph 74% 0.00 in 0 W/m2
01:40 65 °F 56.5 °F 29.80 in WNW 4 mph 4 mph 74% 0.00 in 0 W/m2
01:45 65 °F 56.5 °F 29.80 in North 4 mph 4 mph 74% 0.00 in 0 W/m2
01:50 64.9 °F 56.8 °F 29.80 in WNW 3 mph 3 mph 75% 0.00 in 0 W/m2
01:55 64.9 °F 56.8 °F 29.80 in West 3 mph 3 mph 75% 0.00 in 0 W/m2
02:00 64.9 °F 56.8 °F 29.80 in WNW 3 mph 3 mph 75% 0.00 in 0 W/m2
02:05 64.9 °F 56.8 °F 29.80 in NNE 2 mph 3 mph 75% 0.00 in 0 W/m2
02:10 64.8 °F 56.7 °F 29.81 in WNW 2 mph 4 mph 75% 0.00 in 0 W/m2
02:15 64.8 °F 56.7 °F 29.81 in West 3 mph 4 mph 75% 0.00 in 0 W/m2
02:20 64.8 °F 56.7 °F 29.81 in NW 3 mph 5 mph 75% 0.00 in 0 W/m2
02:25 64.7 °F 56.6 °F 29.81 in West 2 mph 5 mph 75% 0.00 in 0 W/m2
02:30 64.7 °F 56.6 °F 29.81 in WSW 2 mph 2 mph 75% 0.00 in 0 W/m2
02:35 64.7 °F 57 °F 29.81 in NNW 2 mph 2 mph 76% 0.00 in 0 W/m2
02:40 64.6 °F 56.9 °F 29.81 in NNW 2 mph 3 mph 76% 0.00 in 0 W/m2
02:45 64.6 °F 56.9 °F 29.81 in NNW 2 mph 3 mph 76% 0.00 in 0 W/m2
02:50 64.5 °F 56.8 °F 29.81 in NW 2 mph 3 mph 76% 0.00 in 0 W/m2
02:55 64.5 °F 56.8 °F 29.81 in SW 2 mph 3 mph 76% 0.00 in 0 W/m2
03:00 64.5 °F 56.8 °F 29.81 in WNW 2 mph 3 mph 76% 0.00 in 0 W/m2
03:05 64.5 °F 56.8 °F 29.81 in South 1 mph 3 mph 76% 0.00 in 0 W/m2
03:10 64.4 °F 56.7 °F 29.81 in WSW 1 mph 2 mph 76% 0.00 in 0 W/m2
03:15 64.4 °F 56.7 °F 29.81 in NNW 1 mph 2 mph 76% 0.00 in 0 W/m2
03:20 64.4 °F 56.7 °F 29.80 in East 1 mph 1 mph 76% 0.00 in 0 W/m2
03:25 64.3 °F 56.6 °F 29.79 in East 1 mph 1 mph 76% 0.00 in 0 W/m2
03:30 64.3 °F 56.6 °F 29.79 in NE 1 mph 1 mph 76% 0.00 in 0 W/m2
03:35 64.2 °F 56.8 °F 29.79 in Calm   1 mph 77% 0.00 in 0 W/m2
03:40 64.1 °F 56.7 °F 29.80 in Calm     77% 0.00 in 0 W/m2
03:45 64.1 °F 56.7 °F 29.80 in NW 1 mph 2 mph 77% 0.00 in 0 W/m2
03:50 64 °F 56.6 °F 29.80 in West 1 mph 1 mph 77% 0.00 in 0 W/m2
03:55 64 °F 56.6 °F 29.81 in NW 1 mph 1 mph 77% 0.00 in 0 W/m2
04:00 63.8 °F 56.4 °F 29.81 in North 1 mph 1 mph 77% 0.00 in 0 W/m2
04:05 63.8 °F 56.4 °F 29.81 in NNW 1 mph 1 mph 77% 0.00 in 0 W/m2
04:10 63.7 °F 56.4 °F 29.81 in NNW 1 mph 1 mph 77% 0.00 in 0 W/m2
04:15 63.6 °F 56.3 °F 29.81 in NNW 1 mph 1 mph 77% 0.00 in 0 W/m2
04:20 63.5 °F 56.2 °F 29.81 in NW 1 mph 1 mph 77% 0.00 in 0 W/m2
04:25 63.4 °F 56.4 °F 29.81 in NW 1 mph 2 mph 78% 0.00 in 0 W/m2
04:30 63.3 °F 56.3 °F 29.81 in NW 1 mph 1 mph 78% 0.00 in 0 W/m2
04:35 63.2 °F 56.2 °F 29.81 in North 1 mph 1 mph 78% 0.00 in 0 W/m2
04:40 63.2 °F 56.2 °F 29.81 in Calm     78% 0.00 in 0 W/m2
04:45 63.2 °F 56.6 °F 29.82 in NW 1 mph 1 mph 79% 0.00 in 0 W/m2
04:50 63.1 °F 56.5 °F 29.82 in NW 1 mph 1 mph 79% 0.00 in 0 W/m2
04:55 63 °F 56.4 °F 29.82 in NW 1 mph 1 mph 79% 0.00 in 0 W/m2
05:00 63 °F 56.7 °F 29.82 in NW 1 mph 1 mph 80% 0.00 in 0 W/m2
05:05 63 °F 56.7 °F 29.82 in Calm   1 mph 80% 0.00 in 0 W/m2
05:10 62.9 °F 56.6 °F 29.82 in West 1 mph 1 mph 80% 0.00 in 0 W/m2
05:15 62.9 °F 56.6 °F 29.82 in NW 1 mph 1 mph 80% 0.00 in 0 W/m2
05:20 62.9 °F 57 °F 29.82 in North 1 mph 1 mph 81% 0.00 in 0 W/m2
05:25 62.9 °F 57 °F 29.82 in NW 1 mph 1 mph 81% 0.00 in 0 W/m2
05:30 62.9 °F 57 °F 29.83 in Calm   1 mph 81% 0.00 in 0 W/m2
05:35 62.9 °F 57.3 °F 29.83 in West 1 mph 1 mph 82% 0.00 in 0 W/m2
05:40 63 °F 57.4 °F 29.83 in West 1 mph 1 mph 82% 0.00 in 0 W/m2
05:45 63 °F 57.4 °F 29.83 in North 1 mph 1 mph 82% 0.00 in 0 W/m2
05:50 63.1 °F 57.9 °F 29.82 in NNW 1 mph 2 mph 83% 0.00 in 0 W/m2
05:55 63.1 °F 57.9 °F 29.82 in West 1 mph 2 mph 83% 0.00 in 0 W/m2
06:00 63.2 °F 57.9 °F 29.82 in Calm   1 mph 83% 0.00 in 0 W/m2
06:05 63.7 °F 59.1 °F 29.82 in WSW 1 mph 1 mph 85% 0.00 in 0 W/m2
06:10 64 °F 59.4 °F 29.83 in North 1 mph 1 mph 85% 0.00 in 0 W/m2
06:15 64 °F 59.4 °F 29.83 in NE 1 mph 1 mph 85% 0.00 in 0 W/m2
06:20 64.1 °F 59.5 °F 29.83 in NE 1 mph 1 mph 85% 0.00 in 0 W/m2
06:25 64.3 °F 59.7 °F 29.84 in North 1 mph 1 mph 85% 0.00 in 0 W/m2
06:30 64.3 °F 59.7 °F 29.84 in NNE 1 mph 1 mph 85% 0.00 in 0 W/m2
06:35 64.3 °F 59.4 °F 29.84 in NNE 1 mph 1 mph 84% 0.00 in 0 W/m2
06:40 64.5 °F 59.6 °F 29.84 in Calm     84% 0.00 in 0 W/m2
06:45 64.6 °F 59.7 °F 29.84 in Calm     84% 0.00 in 0 W/m2
06:50 64.7 °F 59.8 °F 29.84 in Calm   2 mph 84% 0.00 in 0 W/m2
06:55 64.7 °F 59.4 °F 29.84 in Calm   2 mph 83% 0.00 in 0 W/m2
07:00 64.9 °F 59.9 °F 29.85 in Calm     84% 0.00 in 0 W/m2
07:05 65 °F 60 °F 29.85 in SSW 1 mph 1 mph 84% 0.00 in 0 W/m2
07:10 65.1 °F 60.5 °F 29.85 in WSW 1 mph 1 mph 85% 0.00 in 0 W/m2
07:15 65.2 °F 60.6 °F 29.86 in SSW 1 mph 1 mph 85% 0.00 in 0 W/m2
07:20 65.4 °F 61.1 °F 29.86 in South 1 mph 1 mph 86% 0.00 in 0 W/m2
07:25 65.4 °F 61.1 °F 29.86 in West 1 mph 2 mph 86% 0.00 in 0 W/m2
07:30 65.2 °F 60.6 °F 29.86 in WNW 2 mph 2 mph 85% 0.00 in 5 W/m2
07:35 65 °F 60 °F 29.86 in NNW 2 mph 2 mph 84% 0.00 in 11 W/m2
07:40 64.9 °F 59.6 °F 29.87 in West 2 mph 4 mph 83% 0.00 in 11 W/m2
07:45 64.7 °F 59.4 °F 29.87 in WSW 2 mph 4 mph 83% 0.00 in 18 W/m2
07:50 64.7 °F 59.1 °F 29.87 in West 2 mph 2 mph 82% 0.00 in 28 W/m2
07:55 64.6 °F 59 °F 29.87 in WSW 2 mph 3 mph 82% 0.00 in 40 W/m2
08:00 64.6 °F 59 °F 29.87 in NW 2 mph 2 mph 82% 0.00 in 44 W/m2
08:05 64.6 °F 59 °F 29.88 in West 2 mph 4 mph 82% 0.00 in 54 W/m2
08:10 64.5 °F 58.9 °F 29.88 in North 2 mph 3 mph 82% 0.00 in 56 W/m2
08:15 64.5 °F 58.9 °F 29.88 in NW 2 mph 3 mph 82% 0.00 in 46 W/m2
08:20 64.5 °F 58.9 °F 29.88 in West 2 mph 2 mph 82% 0.00 in 60 W/m2
08:25 64.5 °F 58.9 °F 29.88 in NNE 2 mph 2 mph 82% 0.00 in 54 W/m2
08:30 64.6 °F 59 °F 29.88 in West 2 mph 2 mph 82% 0.00 in 76 W/m2
08:35 64.6 °F 59.3 °F 29.88 in North 2 mph 5 mph 83% 0.00 in 56 W/m2
08:40 64.6 °F 59.3 °F 29.88 in NW 3 mph 5 mph 83% 0.00 in 209 W/m2
08:45 64.7 °F 59.4 °F 29.88 in NW 3 mph 5 mph 83% 0.00 in 237 W/m2
08:50 64.8 °F 59.5 °F 29.88 in West 2 mph 2 mph 83% 0.00 in 257 W/m2
08:55 65 °F 59.7 °F 29.89 in NNW 3 mph 3 mph 83% 0.00 in 285 W/m2
09:00 65.1 °F 59.8 °F 29.89 in NW 3 mph 3 mph 83% 0.00 in 257 W/m2
09:05 65.2 °F 59.9 °F 29.89 in WSW 2 mph 3 mph 83% 0.00 in 100 W/m2
09:10 65.3 °F 60 °F 29.89 in West 1 mph 1 mph 83% 0.00 in 102 W/m2
09:15 65.3 °F 59.7 °F 29.89 in SW 2 mph 3 mph 82% 0.00 in 142 W/m2
09:20 65.5 °F 59.9 °F 29.89 in NW 2 mph 2 mph 82% 0.00 in 141 W/m2
09:25 65.5 °F 59.9 °F 29.89 in NNW 2 mph 2 mph 82% 0.00 in 207 W/m2
09:30 65.6 °F 60 °F 29.89 in NE 2 mph 2 mph 82% 0.00 in 121 W/m2
09:35 65.7 °F 59.7 °F 29.89 in NNW 2 mph 2 mph 81% 0.00 in 141 W/m2
09:40 65.8 °F 59.8 °F 29.90 in NW 2 mph 2 mph 81% 0.00 in 132 W/m2
09:45 65.8 °F 59.5 °F 29.90 in North 2 mph 3 mph 80% 0.00 in 135 W/m2
09:50 65.8 °F 59.5 °F 29.90 in NNW 2 mph 2 mph 80% 0.00 in 369 W/m2
09:55 65.9 °F 59.6 °F 29.90 in ENE 2 mph 2 mph 80% 0.00 in 120 W/m2
10:00 66 °F 59.3 °F 29.90 in WNW 2 mph 2 mph 79% 0.00 in 297 W/m2
10:05 66.3 °F 59.9 °F 29.90 in NNW 2 mph 3 mph 80% 0.00 in 206 W/m2
10:10 66.5 °F 59.8 °F 29.90 in NW 3 mph 3 mph 79% 0.00 in 281 W/m2
10:15 66.6 °F 59.9 °F 29.90 in West 2 mph 3 mph 79% 0.00 in 123 W/m2
10:20 66.6 °F 59.5 °F 29.91 in NW 3 mph 3 mph 78% 0.00 in 142 W/m2
10:25 66.6 °F 59.5 °F 29.91 in NW 3 mph 5 mph 78% 0.00 in 160 W/m2
10:30 66.6 °F 59.5 °F 29.91 in NNW 3 mph 3 mph 78% 0.00 in 524 W/m2
10:35 66.6 °F 59.2 °F 29.91 in WNW 4 mph 4 mph 77% 0.00 in 496 W/m2
10:40 66.5 °F 59.4 °F 29.92 in NNW 4 mph 6 mph 78% 0.00 in 506 W/m2
10:45 66.6 °F 59.9 °F 29.92 in NNW 4 mph 6 mph 79% 0.00 in 519 W/m2
10:50 66.5 °F 59.4 °F 29.92 in NNE 3 mph 3 mph 78% 0.00 in 529 W/m2
10:55 66.6 °F 59.9 °F 29.92 in NW 2 mph 3 mph 79% 0.00 in 538 W/m2
11:00 66.7 °F 60 °F 29.92 in NNW 2 mph 5 mph 79% 0.00 in 550 W/m2
11:05 66.8 °F 60.1 °F 29.92 in WNW 3 mph 5 mph 79% 0.00 in 561 W/m2
11:10 66.8 °F 59.7 °F 29.92 in NNE 3 mph 3 mph 78% 0.00 in 571 W/m2
11:15 66.9 °F 59.8 °F 29.92 in NW 3 mph 3 mph 78% 0.00 in 582 W/m2
11:20 67 °F 59.5 °F 29.92 in WNW 3 mph 3 mph 77% 0.00 in 591 W/m2
11:25 67.1 °F 59.6 °F 29.92 in North 3 mph 6 mph 77% 0.00 in 599 W/m2
11:30 67.1 °F 59.6 °F 29.92 in WSW 3 mph 3 mph 77% 0.00 in 606 W/m2
11:35 67.2 °F 60.1 °F 29.92 in WNW 3 mph 5 mph 78% 0.00 in 613 W/m2
11:40 67.3 °F 59.8 °F 29.93 in NE 3 mph 3 mph 77% 0.00 in 622 W/m2
11:45 67.4 °F 60.3 °F 29.93 in West 3 mph 3 mph 78% 0.00 in 631 W/m2
11:50 67.5 °F 60.4 °F 29.93 in North 3 mph 5 mph 78% 0.00 in 638 W/m2
11:55 67.6 °F 60.1 °F 29.93 in North 3 mph 5 mph 77% 0.00 in 643 W/m2
12:00 67.7 °F 60.2 °F 29.93 in NW 3 mph 3 mph 77% 0.00 in 652 W/m2
12:05 67.9 °F 60.4 °F 29.93 in NE 2 mph 3 mph 77% 0.00 in 657 W/m2
12:10 68.1 °F 60.6 °F 29.93 in West 2 mph 3 mph 77% 0.00 in 670 W/m2
12:15 68.4 °F 60.9 °F 29.93 in East 1 mph 3 mph 77% 0.00 in 671 W/m2
12:20 68.6 °F 60.4 °F 29.93 in West 2 mph 2 mph 75% 0.00 in 679 W/m2
12:25 68.8 °F 60.9 °F 29.93 in SSE 2 mph 3 mph 76% 0.00 in 684 W/m2
12:30 69 °F 60.7 °F 29.93 in SE 2 mph 2 mph 75% 0.00 in 691 W/m2
12:35 69.1 °F 60.8 °F 29.93 in NNE 2 mph 2 mph 75% 0.00 in 694 W/m2
12:40 69.3 °F 61.4 °F 29.93 in WSW 2 mph 3 mph 76% 0.00 in 701 W/m2
12:45 69.3 °F 61.4 °F 29.93 in NE 2 mph 3 mph 76% 0.00 in 701 W/m2
12:50 69.2 °F 60.6 °F 29.93 in West 2 mph 2 mph 74% 0.00 in 708 W/m2
12:55 69 °F 60.4 °F 29.93 in SSW 2 mph 2 mph 74% 0.00 in 710 W/m2
13:00 68.8 °F 60.2 °F 29.93 in SSW 2 mph 3 mph 74% 0.00 in 714 W/m2
13:05 69 °F 61.5 °F 29.93 in South 2 mph 3 mph 77% 0.00 in 715 W/m2
13:10 69.1 °F 61.2 °F 29.93 in SSW 2 mph 2 mph 76% 0.00 in 717 W/m2
13:15 69.1 °F 60.8 °F 29.93 in West 3 mph 3 mph 75% 0.00 in 715 W/m2
13:20 69.1 °F 61.2 °F 29.93 in WNW 3 mph 3 mph 76% 0.00 in 722 W/m2
13:25 69.1 °F 60.8 °F 29.93 in SSE 3 mph 4 mph 75% 0.00 in 722 W/m2
13:30 69.1 °F 61.2 °F 29.93 in SSW 3 mph 4 mph 76% 0.00 in 721 W/m2
13:35 69.2 °F 60.9 °F 29.93 in SSW 3 mph 4 mph 75% 0.00 in 724 W/m2
13:40 69.1 °F 61.2 °F 29.93 in SW 2 mph 2 mph 76% 0.00 in 722 W/m2
13:45 69.3 °F 61 °F 29.93 in NW 2 mph 2 mph 75% 0.00 in 726 W/m2
13:50 69.4 °F 60.8 °F 29.93 in West 3 mph 4 mph 74% 0.00 in 726 W/m2
13:55 69.4 °F 60.8 °F 29.93 in SW 3 mph 4 mph 74% 0.00 in 722 W/m2
14:00 69.6 °F 61.3 °F 29.93 in South 3 mph 3 mph 75% 0.00 in 728 W/m2
14:05 69.3 °F 60.3 °F 29.93 in SSW 2 mph 3 mph 73% 0.00 in 724 W/m2
14:10 69.4 °F 60.4 °F 29.93 in SSE 3 mph 3 mph 73% 0.00 in 724 W/m2
14:15 69.6 °F 60.9 °F 29.93 in SE 3 mph 3 mph 74% 0.00 in 710 W/m2
14:20 69.6 °F 60.9 °F 29.93 in South 2 mph 3 mph 74% 0.00 in 705 W/m2
14:25 69.7 °F 61 °F 29.93 in WSW 2 mph 3 mph 74% 0.00 in 703 W/m2
14:30 69.8 °F 61.1 °F 29.93 in SW 2 mph 2 mph 74% 0.00 in 705 W/m2
14:35 69.5 °F 60.5 °F 29.93 in SSE 2 mph 2 mph 73% 0.00 in 703 W/m2
14:40 69.5 °F 60.8 °F 29.93 in SW 2 mph 3 mph 74% 0.00 in 701 W/m2
14:45 69.6 °F 60.6 °F 29.93 in SSE 2 mph 3 mph 73% 0.00 in 698 W/m2
14:50 70 °F 60.9 °F 29.93 in South 2 mph 2 mph 73% 0.00 in 693 W/m2
14:55 70.1 °F 60.3 °F 29.93 in West 2 mph 2 mph 71% 0.00 in 684 W/m2
15:00 70.1 °F 60.3 °F 29.93 in SSW 3 mph 3 mph 71% 0.00 in 677 W/m2
15:05 70.1 °F 60.7 °F 29.93 in SSW 3 mph 3 mph 72% 0.00 in 668 W/m2
15:10 70.3 °F 60.8 °F 29.93 in West 3 mph 4 mph 72% 0.00 in 661 W/m2
15:15 70.4 °F 61.3 °F 29.93 in South 3 mph 4 mph 73% 0.00 in 654 W/m2
15:20 70.5 °F 60.6 °F 29.93 in West 2 mph 2 mph 71% 0.00 in 650 W/m2
15:25 70.6 °F 61.1 °F 29.93 in WSW 2 mph 2 mph 72% 0.00 in 649 W/m2
15:30 70.6 °F 60.7 °F 29.93 in South 2 mph 2 mph 71% 0.00 in 640 W/m2
15:35 70.7 °F 60.8 °F 29.93 in SSW 2 mph 3 mph 71% 0.00 in 629 W/m2
15:40 70.7 °F 60.4 °F 29.93 in SW 2 mph 2 mph 70% 0.00 in 619 W/m2
15:45 70.8 °F 60.1 °F 29.93 in SSW 2 mph 3 mph 69% 0.00 in 610 W/m2
15:50 70.8 °F 60.5 °F 29.93 in West 2 mph 2 mph 70% 0.00 in 601 W/m2
15:55 70.8 °F 60.5 °F 29.93 in SW 2 mph 2 mph 70% 0.00 in 589 W/m2
16:00 71 °F 60.3 °F 29.93 in ESE 2 mph 2 mph 69% 0.00 in 582 W/m2
16:05 71 °F 60.3 °F 29.93 in South 2 mph 2 mph 69% 0.00 in 575 W/m2
16:10 71.1 °F 60.8 °F 29.94 in South 2 mph 3 mph 70% 0.00 in 564 W/m2
16:15 71.2 °F 60.1 °F 29.94 in South 2 mph 3 mph 68% 0.00 in 550 W/m2
16:20 71.3 °F 60.2 °F 29.94 in SW 2 mph 2 mph 68% 0.00 in 540 W/m2
16:25 71.3 °F 59.4 °F 29.94 in SSW 2 mph 2 mph 66% 0.00 in 526 W/m2
16:30 71.5 °F 60 °F 29.94 in South 2 mph 2 mph 67% 0.00 in 515 W/m2
16:35 71.4 °F 59 °F 29.94 in South 2 mph 2 mph 65% 0.00 in 506 W/m2
16:40 71.2 °F 59.7 °F 29.94 in South 2 mph 2 mph 67% 0.00 in 490 W/m2
16:45 71 °F 59.9 °F 29.94 in West 1 mph 3 mph 68% 0.00 in 482 W/m2
16:50 70.9 °F 58.5 °F 29.94 in South 1 mph 2 mph 65% 0.00 in 475 W/m2
16:55 70.8 °F 58.9 °F 29.94 in ESE 1 mph 2 mph 66% 0.00 in 464 W/m2
17:00 71 °F 58.6 °F 29.94 in SSW 1 mph 1 mph 65% 0.00 in 450 W/m2
17:05 71.1 °F 58.3 °F 29.95 in East 1 mph 1 mph 64% 0.00 in 432 W/m2
17:10 71.3 °F 58.5 °F 29.95 in SSE 1 mph 1 mph 64% 0.00 in 422 W/m2
17:20 71.5 °F 59.1 °F 29.95 in SW 2 mph 2 mph 65% 0.00 in 390 W/m2
17:25 71.6 °F 58.8 °F 29.95 in SE 2 mph 2 mph 64% 0.00 in 387 W/m2
17:30 71.5 °F 59.5 °F 29.95 in South 1 mph 1 mph 66% 0.00 in 378 W/m2
17:35 71.4 °F 58.6 °F 29.95 in SSE 1 mph 1 mph 64% 0.00 in 410 W/m2
17:40 71.4 °F 58.6 °F 29.95 in SSE 1 mph 1 mph 64% 0.00 in 253 W/m2
17:45 71.3 °F 57.6 °F 29.95 in SSW 1 mph 1 mph 62% 0.00 in 360 W/m2
17:50 71.3 °F 58.1 °F 29.95 in SE 1 mph 1 mph 63% 0.00 in 315 W/m2
17:55 71.2 °F 58.8 °F 29.95 in SW 1 mph 2 mph 65% 0.00 in 292 W/m2
18:00 71.1 °F 58.3 °F 29.95 in WNW 1 mph 1 mph 64% 0.00 in 279 W/m2
18:05 71 °F 58.6 °F 29.95 in NE 1 mph 1 mph 65% 0.00 in 271 W/m2
18:10 70.9 °F 58.5 °F 29.96 in SE 1 mph 1 mph 65% 0.00 in 258 W/m2
18:15 70.8 °F 58.4 °F 29.96 in Calm   1 mph 65% 0.00 in 62 W/m2
18:20 70.7 °F 57.9 °F 29.96 in SSE 1 mph 1 mph 64% 0.00 in 51 W/m2
18:25 70.7 °F 57.9 °F 29.96 in SE 1 mph 1 mph 64% 0.00 in 39 W/m2
Sand Point, Michigan, USA
Compliments of Weather Underground - 2 mb